sensor_id;sensor_type;location;lat;lon;timestamp;temperature;humidity
31379;DHT22;61664;48.112;11.662;2023-04-25T00:00:18;10.80;71.90
31379;DHT22;61664;48.112;11.662;2023-04-25T00:02:45;10.80;72.00
31379;DHT22;61664;48.112;11.662;2023-04-25T00:05:13;10.80;71.80
31379;DHT22;61664;48.112;11.662;2023-04-25T00:07:41;10.70;71.70
31379;DHT22;61664;48.112;11.662;2023-04-25T00:10:09;10.70;71.80
31379;DHT22;61664;48.112;11.662;2023-04-25T00:12:38;10.70;71.70
31379;DHT22;61664;48.112;11.662;2023-04-25T00:15:06;10.70;71.70
31379;DHT22;61664;48.112;11.662;2023-04-25T00:17:33;10.70;71.80
31379;DHT22;61664;48.112;11.662;2023-04-25T00:20:02;10.70;71.90
31379;DHT22;61664;48.112;11.662;2023-04-25T00:22:32;10.70;72.10
31379;DHT22;61664;48.112;11.662;2023-04-25T00:25:00;10.70;71.90
31379;DHT22;61664;48.112;11.662;2023-04-25T00:27:27;10.80;71.70
31379;DHT22;61664;48.112;11.662;2023-04-25T00:29:54;10.80;72.30
31379;DHT22;61664;48.112;11.662;2023-04-25T00:32:21;10.80;71.50
31379;DHT22;61664;48.112;11.662;2023-04-25T00:34:48;10.90;71.60
31379;DHT22;61664;48.112;11.662;2023-04-25T00:37:15;10.80;71.60
31379;DHT22;61664;48.112;11.662;2023-04-25T00:39:42;10.80;71.60
31379;DHT22;61664;48.112;11.662;2023-04-25T00:42:10;10.90;72.20
31379;DHT22;61664;48.112;11.662;2023-04-25T00:44:37;10.90;71.40
31379;DHT22;61664;48.112;11.662;2023-04-25T00:47:05;10.90;71.80
31379;DHT22;61664;48.112;11.662;2023-04-25T00:49:36;10.90;71.70
31379;DHT22;61664;48.112;11.662;2023-04-25T00:52:03;10.90;71.70
31379;DHT22;61664;48.112;11.662;2023-04-25T00:54:31;10.90;71.60
31379;DHT22;61664;48.112;11.662;2023-04-25T00:56:58;10.90;71.60
31379;DHT22;61664;48.112;11.662;2023-04-25T00:59:27;10.90;71.60
31379;DHT22;61664;48.112;11.662;2023-04-25T01:01:56;10.90;71.40
31379;DHT22;61664;48.112;11.662;2023-04-25T01:04:23;11.00;71.20
31379;DHT22;61664;48.112;11.662;2023-04-25T01:06:51;10.90;71.40
31379;DHT22;61664;48.112;11.662;2023-04-25T01:09:18;10.90;71.20
31379;DHT22;61664;48.112;11.662;2023-04-25T01:11:46;10.90;71.40
31379;DHT22;61664;48.112;11.662;2023-04-25T01:14:13;10.90;71.40
31379;DHT22;61664;48.112;11.662;2023-04-25T01:16:40;10.90;71.30
31379;DHT22;61664;48.112;11.662;2023-04-25T01:19:10;10.90;71.30
31379;DHT22;61664;48.112;11.662;2023-04-25T01:21:38;10.90;70.90
31379;DHT22;61664;48.112;11.662;2023-04-25T01:24:06;10.90;71.30
31379;DHT22;61664;48.112;11.662;2023-04-25T01:26:35;10.90;71.40
31379;DHT22;61664;48.112;11.662;2023-04-25T01:29:04;10.90;71.30
31379;DHT22;61664;48.112;11.662;2023-04-25T01:31:32;10.80;71.20
31379;DHT22;61664;48.112;11.662;2023-04-25T01:34:01;10.80;71.40
31379;DHT22;61664;48.112;11.662;2023-04-25T01:36:28;10.90;71.70
31379;DHT22;61664;48.112;11.662;2023-04-25T01:38:55;10.80;71.50
31379;DHT22;61664;48.112;11.662;2023-04-25T01:41:23;10.80;71.60
31379;DHT22;61664;48.112;11.662;2023-04-25T01:43:50;10.80;71.30
31379;DHT22;61664;48.112;11.662;2023-04-25T01:46:17;10.80;71.30
31379;DHT22;61664;48.112;11.662;2023-04-25T01:48:45;10.80;71.20
31379;DHT22;61664;48.112;11.662;2023-04-25T01:51:13;10.80;71.20
31379;DHT22;61664;48.112;11.662;2023-04-25T01:53:40;10.80;71.10
31379;DHT22;61664;48.112;11.662;2023-04-25T01:56:07;10.70;71.00
31379;DHT22;61664;48.112;11.662;2023-04-25T01:58:34;10.70;70.90
31379;DHT22;61664;48.112;11.662;2023-04-25T02:01:01;10.60;70.90
31379;DHT22;61664;48.112;11.662;2023-04-25T02:03:30;10.60;70.90
31379;DHT22;61664;48.112;11.662;2023-04-25T02:05:58;10.50;70.50
31379;DHT22;61664;48.112;11.662;2023-04-25T02:08:28;10.50;70.70
31379;DHT22;61664;48.112;11.662;2023-04-25T02:10:55;10.50;70.90
31379;DHT22;61664;48.112;11.662;2023-04-25T02:13:22;10.40;71.10
31379;DHT22;61664;48.112;11.662;2023-04-25T02:15:48;10.40;71.20
31379;DHT22;61664;48.112;11.662;2023-04-25T02:18:16;10.40;71.30
31379;DHT22;61664;48.112;11.662;2023-04-25T02:20:43;10.40;71.30
31379;DHT22;61664;48.112;11.662;2023-04-25T02:23:10;10.30;71.20
31379;DHT22;61664;48.112;11.662;2023-04-25T02:25:38;10.30;71.30
31379;DHT22;61664;48.112;11.662;2023-04-25T02:28:04;10.30;71.40
31379;DHT22;61664;48.112;11.662;2023-04-25T02:30:31;10.20;71.30
31379;DHT22;61664;48.112;11.662;2023-04-25T02:32:59;10.20;71.30
31379;DHT22;61664;48.112;11.662;2023-04-25T02:35:26;10.30;71.60
31379;DHT22;61664;48.112;11.662;2023-04-25T02:37:53;10.30;71.80
31379;DHT22;61664;48.112;11.662;2023-04-25T02:40:19;10.20;71.70
31379;DHT22;61664;48.112;11.662;2023-04-25T02:42:46;10.20;71.80
31379;DHT22;61664;48.112;11.662;2023-04-25T02:45:14;10.20;71.60
31379;DHT22;61664;48.112;11.662;2023-04-25T02:47:41;10.20;71.90
31379;DHT22;61664;48.112;11.662;2023-04-25T02:50:08;10.20;72.10
31379;DHT22;61664;48.112;11.662;2023-04-25T02:52:35;10.20;72.10
31379;DHT22;61664;48.112;11.662;2023-04-25T02:55:02;10.20;72.00
31379;DHT22;61664;48.112;11.662;2023-04-25T02:57:29;10.30;72.50
31379;DHT22;61664;48.112;11.662;2023-04-25T02:59:56;10.20;71.80
31379;DHT22;61664;48.112;11.662;2023-04-25T03:02:23;10.30;71.90
31379;DHT22;61664;48.112;11.662;2023-04-25T03:04:50;10.30;72.00
31379;DHT22;61664;48.112;11.662;2023-04-25T03:07:17;10.20;71.80
31379;DHT22;61664;48.112;11.662;2023-04-25T03:09:44;10.30;71.90
31379;DHT22;61664;48.112;11.662;2023-04-25T03:12:14;10.30;72.10
31379;DHT22;61664;48.112;11.662;2023-04-25T03:14:41;10.40;72.30
31379;DHT22;61664;48.112;11.662;2023-04-25T03:17:07;10.40;72.10
31379;DHT22;61664;48.112;11.662;2023-04-25T03:19:34;10.40;71.70
31379;DHT22;61664;48.112;11.662;2023-04-25T03:22:01;10.40;71.30
31379;DHT22;61664;48.112;11.662;2023-04-25T03:24:28;10.40;71.10
31379;DHT22;61664;48.112;11.662;2023-04-25T03:26:55;10.40;70.60
31379;DHT22;61664;48.112;11.662;2023-04-25T03:29:22;10.40;70.10
31379;DHT22;61664;48.112;11.662;2023-04-25T03:31:52;10.30;70.30
31379;DHT22;61664;48.112;11.662;2023-04-25T03:34:19;10.20;70.60
31379;DHT22;61664;48.112;11.662;2023-04-25T03:36:47;10.10;70.50
31379;DHT22;61664;48.112;11.662;2023-04-25T03:39:14;10.10;70.80
31379;DHT22;61664;48.112;11.662;2023-04-25T03:41:42;10.00;71.20
31379;DHT22;61664;48.112;11.662;2023-04-25T03:44:09;9.90;71.40
31379;DHT22;61664;48.112;11.662;2023-04-25T03:46:36;9.80;71.70
31379;DHT22;61664;48.112;11.662;2023-04-25T03:49:03;9.80;72.10
31379;DHT22;61664;48.112;11.662;2023-04-25T03:51:29;9.70;72.80
31379;DHT22;61664;48.112;11.662;2023-04-25T03:53:57;9.70;72.70
31379;DHT22;61664;48.112;11.662;2023-04-25T03:56:24;9.60;72.80
31379;DHT22;61664;48.112;11.662;2023-04-25T03:58:51;9.60;73.00
31379;DHT22;61664;48.112;11.662;2023-04-25T04:01:18;9.60;73.10
31379;DHT22;61664;48.112;11.662;2023-04-25T04:03:45;9.60;73.30
31379;DHT22;61664;48.112;11.662;2023-04-25T04:06:12;9.60;73.70
31379;DHT22;61664;48.112;11.662;2023-04-25T04:08:39;9.50;73.80
31379;DHT22;61664;48.112;11.662;2023-04-25T04:11:06;9.50;73.70
31379;DHT22;61664;48.112;11.662;2023-04-25T04:13:33;9.50;73.80
31379;DHT22;61664;48.112;11.662;2023-04-25T04:16:00;9.50;74.00
31379;DHT22;61664;48.112;11.662;2023-04-25T04:18:27;9.50;74.20
31379;DHT22;61664;48.112;11.662;2023-04-25T04:20:54;9.50;74.20
31379;DHT22;61664;48.112;11.662;2023-04-25T04:23:21;9.40;74.20
31379;DHT22;61664;48.112;11.662;2023-04-25T04:25:49;9.40;74.30
31379;DHT22;61664;48.112;11.662;2023-04-25T04:28:16;9.40;74.70
31379;DHT22;61664;48.112;11.662;2023-04-25T04:30:43;9.40;74.60
31379;DHT22;61664;48.112;11.662;2023-04-25T04:33:13;9.40;74.80
31379;DHT22;61664;48.112;11.662;2023-04-25T04:35:41;9.40;75.00
31379;DHT22;61664;48.112;11.662;2023-04-25T04:38:09;9.40;75.10
31379;DHT22;61664;48.112;11.662;2023-04-25T04:40:37;9.40;75.30
31379;DHT22;61664;48.112;11.662;2023-04-25T04:43:04;9.40;75.30
31379;DHT22;61664;48.112;11.662;2023-04-25T04:45:31;9.40;75.40
31379;DHT22;61664;48.112;11.662;2023-04-25T04:47:58;9.40;75.40
31379;DHT22;61664;48.112;11.662;2023-04-25T04:50:25;9.40;75.60
31379;DHT22;61664;48.112;11.662;2023-04-25T04:52:54;9.40;75.40
31379;DHT22;61664;48.112;11.662;2023-04-25T04:55:22;9.40;75.90
31379;DHT22;61664;48.112;11.662;2023-04-25T04:57:48;9.50;76.00
31379;DHT22;61664;48.112;11.662;2023-04-25T05:00:15;9.50;76.00
31379;DHT22;61664;48.112;11.662;2023-04-25T05:02:43;9.40;75.50
31379;DHT22;61664;48.112;11.662;2023-04-25T05:05:10;9.50;75.90
31379;DHT22;61664;48.112;11.662;2023-04-25T05:07:37;9.50;76.60
31379;DHT22;61664;48.112;11.662;2023-04-25T05:10:04;9.60;77.10
31379;DHT22;61664;48.112;11.662;2023-04-25T05:12:31;9.60;77.30
31379;DHT22;61664;48.112;11.662;2023-04-25T05:15:00;9.70;77.30
31379;DHT22;61664;48.112;11.662;2023-04-25T05:17:27;9.90;77.30
31379;DHT22;61664;48.112;11.662;2023-04-25T05:19:54;9.80;77.60
31379;DHT22;61664;48.112;11.662;2023-04-25T05:22:21;9.90;77.00
31379;DHT22;61664;48.112;11.662;2023-04-25T05:24:48;10.00;76.70
31379;DHT22;61664;48.112;11.662;2023-04-25T05:27:17;10.00;76.40
31379;DHT22;61664;48.112;11.662;2023-04-25T05:29:44;10.00;76.00
31379;DHT22;61664;48.112;11.662;2023-04-25T05:32:11;10.00;76.30
31379;DHT22;61664;48.112;11.662;2023-04-25T05:34:38;10.10;76.30
31379;DHT22;61664;48.112;11.662;2023-04-25T05:37:06;10.10;76.50
31379;DHT22;61664;48.112;11.662;2023-04-25T05:39:32;10.20;76.00
31379;DHT22;61664;48.112;11.662;2023-04-25T05:41:59;10.20;76.10
31379;DHT22;61664;48.112;11.662;2023-04-25T05:44:28;10.30;76.50
31379;DHT22;61664;48.112;11.662;2023-04-25T05:46:55;10.30;76.50
31379;DHT22;61664;48.112;11.662;2023-04-25T05:49:22;10.30;75.90
31379;DHT22;61664;48.112;11.662;2023-04-25T05:51:49;10.40;75.70
31379;DHT22;61664;48.112;11.662;2023-04-25T05:54:15;10.40;75.50
31379;DHT22;61664;48.112;11.662;2023-04-25T05:56:42;10.40;75.70
31379;DHT22;61664;48.112;11.662;2023-04-25T05:59:09;10.40;75.90
31379;DHT22;61664;48.112;11.662;2023-04-25T06:01:36;10.40;76.40
31379;DHT22;61664;48.112;11.662;2023-04-25T06:04:03;10.50;76.50
31379;DHT22;61664;48.112;11.662;2023-04-25T06:06:30;10.50;75.50
31379;DHT22;61664;48.112;11.662;2023-04-25T06:08:58;10.60;75.20
31379;DHT22;61664;48.112;11.662;2023-04-25T06:11:27;10.70;74.60
31379;DHT22;61664;48.112;11.662;2023-04-25T06:13:54;10.70;74.20
31379;DHT22;61664;48.112;11.662;2023-04-25T06:16:21;10.70;74.30
31379;DHT22;61664;48.112;11.662;2023-04-25T06:18:48;10.70;73.60
31379;DHT22;61664;48.112;11.662;2023-04-25T06:21:15;10.60;72.70
31379;DHT22;61664;48.112;11.662;2023-04-25T06:23:42;10.50;72.40
31379;DHT22;61664;48.112;11.662;2023-04-25T06:26:09;10.40;71.30
31379;DHT22;61664;48.112;11.662;2023-04-25T06:28:35;10.20;70.90
31379;DHT22;61664;48.112;11.662;2023-04-25T06:31:02;10.00;71.60
31379;DHT22;61664;48.112;11.662;2023-04-25T06:33:29;9.80;72.50
31379;DHT22;61664;48.112;11.662;2023-04-25T06:35:56;9.70;73.50
31379;DHT22;61664;48.112;11.662;2023-04-25T06:38:23;9.40;74.50
31379;DHT22;61664;48.112;11.662;2023-04-25T06:40:53;9.30;76.00
31379;DHT22;61664;48.112;11.662;2023-04-25T06:43:21;9.20;77.10
31379;DHT22;61664;48.112;11.662;2023-04-25T06:45:48;9.20;73.70
31379;DHT22;61664;48.112;11.662;2023-04-25T06:48:14;9.10;77.30
31379;DHT22;61664;48.112;11.662;2023-04-25T06:50:42;9.10;77.90
31379;DHT22;61664;48.112;11.662;2023-04-25T06:53:09;9.10;79.10
31379;DHT22;61664;48.112;11.662;2023-04-25T06:55:36;9.10;80.00
31379;DHT22;61664;48.112;11.662;2023-04-25T06:58:03;9.00;80.40
31379;DHT22;61664;48.112;11.662;2023-04-25T07:00:30;9.20;81.00
31379;DHT22;61664;48.112;11.662;2023-04-25T07:02:57;9.30;81.50
31379;DHT22;61664;48.112;11.662;2023-04-25T07:05:25;9.40;82.50
31379;DHT22;61664;48.112;11.662;2023-04-25T07:07:51;9.50;82.90
31379;DHT22;61664;48.112;11.662;2023-04-25T07:10:19;9.60;82.70
31379;DHT22;61664;48.112;11.662;2023-04-25T07:12:47;9.70;82.10
31379;DHT22;61664;48.112;11.662;2023-04-25T07:15:14;9.90;81.00
31379;DHT22;61664;48.112;11.662;2023-04-25T07:17:41;9.90;80.80
31379;DHT22;61664;48.112;11.662;2023-04-25T07:20:09;9.90;81.10
31379;DHT22;61664;48.112;11.662;2023-04-25T07:22:36;9.90;81.60
31379;DHT22;61664;48.112;11.662;2023-04-25T07:25:04;10.00;81.80
31379;DHT22;61664;48.112;11.662;2023-04-25T07:27:31;10.10;82.20
31379;DHT22;61664;48.112;11.662;2023-04-25T07:29:58;10.10;82.60
31379;DHT22;61664;48.112;11.662;2023-04-25T07:32:26;10.20;82.50
31379;DHT22;61664;48.112;11.662;2023-04-25T07:34:53;10.30;81.70
31379;DHT22;61664;48.112;11.662;2023-04-25T07:37:20;10.30;81.60
31379;DHT22;61664;48.112;11.662;2023-04-25T07:39:47;10.40;82.30
31379;DHT22;61664;48.112;11.662;2023-04-25T07:42:14;10.40;82.70
31379;DHT22;61664;48.112;11.662;2023-04-25T07:44:41;10.50;82.00
31379;DHT22;61664;48.112;11.662;2023-04-25T07:47:09;10.60;82.00
31379;DHT22;61664;48.112;11.662;2023-04-25T07:49:37;10.60;82.50
31379;DHT22;61664;48.112;11.662;2023-04-25T07:52:05;10.70;83.20
31379;DHT22;61664;48.112;11.662;2023-04-25T07:54:34;10.90;82.50
31379;DHT22;61664;48.112;11.662;2023-04-25T07:57:01;11.00;70.50
31379;DHT22;61664;48.112;11.662;2023-04-25T07:59:29;11.00;79.90
31379;DHT22;61664;48.112;11.662;2023-04-25T08:01:56;11.10;80.00
31379;DHT22;61664;48.112;11.662;2023-04-25T08:04:24;11.10;80.50
31379;DHT22;61664;48.112;11.662;2023-04-25T08:06:52;11.10;80.10
31379;DHT22;61664;48.112;11.662;2023-04-25T08:09:20;11.20;81.70
31379;DHT22;61664;48.112;11.662;2023-04-25T08:11:48;11.30;82.10
31379;DHT22;61664;48.112;11.662;2023-04-25T08:14:15;11.40;81.40
31379;DHT22;61664;48.112;11.662;2023-04-25T08:16:41;11.50;82.30
31379;DHT22;61664;48.112;11.662;2023-04-25T08:19:09;11.70;83.30
31379;DHT22;61664;48.112;11.662;2023-04-25T08:21:37;11.90;85.60
31379;DHT22;61664;48.112;11.662;2023-04-25T08:24:04;12.20;88.00
31379;DHT22;61664;48.112;11.662;2023-04-25T08:26:32;12.50;88.60
31379;DHT22;61664;48.112;11.662;2023-04-25T08:28:59;12.90;88.50
31379;DHT22;61664;48.112;11.662;2023-04-25T08:31:26;13.30;86.20
31379;DHT22;61664;48.112;11.662;2023-04-25T08:33:53;13.60;83.30
31379;DHT22;61664;48.112;11.662;2023-04-25T08:36:20;13.80;81.40
31379;DHT22;61664;48.112;11.662;2023-04-25T08:39:05;13.90;80.20
31379;DHT22;61664;48.112;11.662;2023-04-25T08:41:33;14.00;78.90
31379;DHT22;61664;48.112;11.662;2023-04-25T08:44:03;14.00;77.40
31379;DHT22;61664;48.112;11.662;2023-04-25T08:46:31;14.00;76.40
31379;DHT22;61664;48.112;11.662;2023-04-25T08:49:01;13.90;76.80
31379;DHT22;61664;48.112;11.662;2023-04-25T08:51:32;13.90;76.30
31379;DHT22;61664;48.112;11.662;2023-04-25T08:54:09;13.90;75.40
31379;DHT22;61664;48.112;11.662;2023-04-25T08:56:59;13.80;71.40
31379;DHT22;61664;48.112;11.662;2023-04-25T08:59:32;13.90;81.20
31379;DHT22;61664;48.112;11.662;2023-04-25T09:02:00;14.20;83.40
31379;DHT22;61664;48.112;11.662;2023-04-25T09:04:27;14.50;81.70
31379;DHT22;61664;48.112;11.662;2023-04-25T09:06:57;14.70;81.90
31379;DHT22;61664;48.112;11.662;2023-04-25T09:09:25;14.90;81.10
31379;DHT22;61664;48.112;11.662;2023-04-25T09:11:53;15.10;80.10
31379;DHT22;61664;48.112;11.662;2023-04-25T09:14:22;15.30;80.70
31379;DHT22;61664;48.112;11.662;2023-04-25T09:16:59;15.50;80.60
31379;DHT22;61664;48.112;11.662;2023-04-25T09:19:32;15.70;69.70
31379;DHT22;61664;48.112;11.662;2023-04-25T09:22:08;15.90;77.10
31379;DHT22;61664;48.112;11.662;2023-04-25T09:24:40;16.30;83.40
31379;DHT22;61664;48.112;11.662;2023-04-25T09:27:12;16.70;77.30
31379;DHT22;61664;48.112;11.662;2023-04-25T09:29:44;17.20;79.40
31379;DHT22;61664;48.112;11.662;2023-04-25T09:32:21;17.60;81.40
31379;DHT22;61664;48.112;11.662;2023-04-25T09:34:52;18.10;77.40
31379;DHT22;61664;48.112;11.662;2023-04-25T09:37:25;18.40;70.10
31379;DHT22;61664;48.112;11.662;2023-04-25T09:39:55;18.50;64.10
31379;DHT22;61664;48.112;11.662;2023-04-25T09:42:26;18.60;68.60
31379;DHT22;61664;48.112;11.662;2023-04-25T09:44:56;18.50;67.40
31379;DHT22;61664;48.112;11.662;2023-04-25T09:47:25;18.30;65.30
31379;DHT22;61664;48.112;11.662;2023-04-25T09:49:53;18.10;67.20
31379;DHT22;61664;48.112;11.662;2023-04-25T09:52:23;17.90;68.50
31379;DHT22;61664;48.112;11.662;2023-04-25T09:54:52;17.70;69.00
31379;DHT22;61664;48.112;11.662;2023-04-25T09:57:21;17.60;69.60
31379;DHT22;61664;48.112;11.662;2023-04-25T09:59:54;17.50;66.90
31379;DHT22;61664;48.112;11.662;2023-04-25T10:02:24;17.40;65.60
31379;DHT22;61664;48.112;11.662;2023-04-25T10:04:54;17.30;70.20
31379;DHT22;61664;48.112;11.662;2023-04-25T10:07:24;17.30;71.40
31379;DHT22;61664;48.112;11.662;2023-04-25T10:10:00;17.40;77.20
31379;DHT22;61664;48.112;11.662;2023-04-25T10:12:30;17.80;72.40
31379;DHT22;61664;48.112;11.662;2023-04-25T10:14:59;18.40;84.00
31379;DHT22;61664;48.112;11.662;2023-04-25T10:17:27;19.10;86.30
31379;DHT22;61664;48.112;11.662;2023-04-25T10:19:55;19.70;77.50
31379;DHT22;61664;48.112;11.662;2023-04-25T10:25:02;20.00;45.90
31379;DHT22;61664;48.112;11.662;2023-04-25T10:27:34;19.80;61.90
31379;DHT22;61664;48.112;11.662;2023-04-25T10:30:13;19.40;61.40
31379;DHT22;61664;48.112;11.662;2023-04-25T10:32:42;19.00;55.90
31379;DHT22;61664;48.112;11.662;2023-04-25T10:35:29;18.70;65.30
31379;DHT22;61664;48.112;11.662;2023-04-25T10:38:04;18.60;64.10
31379;DHT22;61664;48.112;11.662;2023-04-25T10:40:33;18.80;69.60
31379;DHT22;61664;48.112;11.662;2023-04-25T10:46:01;19.50;56.10
31379;DHT22;61664;48.112;11.662;2023-04-25T10:48:29;19.70;60.80
31379;DHT22;61664;48.112;11.662;2023-04-25T10:51:18;19.70;48.30
31379;DHT22;61664;48.112;11.662;2023-04-25T10:53:46;19.30;45.40
31379;DHT22;61664;48.112;11.662;2023-04-25T10:56:27;18.60;50.70
31379;DHT22;61664;48.112;11.662;2023-04-25T11:01:53;16.30;51.40
31379;DHT22;61664;48.112;11.662;2023-04-25T11:04:28;15.20;56.30
31379;DHT22;61664;48.112;11.662;2023-04-25T11:09:49;13.40;63.60
31379;DHT22;61664;48.112;11.662;2023-04-25T11:12:16;12.80;66.80
31379;DHT22;61664;48.112;11.662;2023-04-25T11:14:44;12.40;69.60
31379;DHT22;61664;48.112;11.662;2023-04-25T11:17:11;12.10;71.60
31379;DHT22;61664;48.112;11.662;2023-04-25T11:19:38;12.00;74.30
31379;DHT22;61664;48.112;11.662;2023-04-25T11:22:05;11.90;76.50
31379;DHT22;61664;48.112;11.662;2023-04-25T11:24:34;11.90;78.00
31379;DHT22;61664;48.112;11.662;2023-04-25T11:27:04;11.90;77.50
31379;DHT22;61664;48.112;11.662;2023-04-25T11:29:33;12.00;76.20
31379;DHT22;61664;48.112;11.662;2023-04-25T11:32:01;11.90;76.40
31379;DHT22;61664;48.112;11.662;2023-04-25T11:34:29;12.00;76.60
31379;DHT22;61664;48.112;11.662;2023-04-25T11:37:01;11.90;76.00
31379;DHT22;61664;48.112;11.662;2023-04-25T11:39:29;11.90;76.00
31379;DHT22;61664;48.112;11.662;2023-04-25T11:41:56;11.80;74.80
31379;DHT22;61664;48.112;11.662;2023-04-25T11:44:23;11.70;74.00
31379;DHT22;61664;48.112;11.662;2023-04-25T11:46:50;11.60;74.20
31379;DHT22;61664;48.112;11.662;2023-04-25T11:49:17;11.50;74.00
31379;DHT22;61664;48.112;11.662;2023-04-25T11:51:47;11.40;74.80
31379;DHT22;61664;48.112;11.662;2023-04-25T11:54:15;11.30;75.50
31379;DHT22;61664;48.112;11.662;2023-04-25T11:56:44;11.30;76.00
31379;DHT22;61664;48.112;11.662;2023-04-25T11:59:13;11.30;76.20
31379;DHT22;61664;48.112;11.662;2023-04-25T12:01:58;11.20;76.40
31379;DHT22;61664;48.112;11.662;2023-04-25T12:04:30;11.30;72.10
31379;DHT22;61664;48.112;11.662;2023-04-25T12:06:59;11.30;76.10
31379;DHT22;61664;48.112;11.662;2023-04-25T12:09:30;11.20;76.70
31379;DHT22;61664;48.112;11.662;2023-04-25T12:11:59;11.20;76.80
31379;DHT22;61664;48.112;11.662;2023-04-25T12:14:34;11.20;76.30
31379;DHT22;61664;48.112;11.662;2023-04-25T12:17:03;11.10;75.00
31379;DHT22;61664;48.112;11.662;2023-04-25T12:19:35;11.10;76.30
31379;DHT22;61664;48.112;11.662;2023-04-25T12:22:07;11.00;76.90
31379;DHT22;61664;48.112;11.662;2023-04-25T12:24:46;11.00;77.40
31379;DHT22;61664;48.112;11.662;2023-04-25T12:27:15;11.00;77.60
31379;DHT22;61664;48.112;11.662;2023-04-25T12:29:51;11.10;77.90
31379;DHT22;61664;48.112;11.662;2023-04-25T12:32:19;11.10;75.50
31379;DHT22;61664;48.112;11.662;2023-04-25T12:34:45;11.10;77.30
31379;DHT22;61664;48.112;11.662;2023-04-25T12:37:13;11.10;77.60
31379;DHT22;61664;48.112;11.662;2023-04-25T12:39:40;11.00;77.00
31379;DHT22;61664;48.112;11.662;2023-04-25T12:42:07;11.00;77.00
31379;DHT22;61664;48.112;11.662;2023-04-25T12:44:40;11.00;76.50
31379;DHT22;61664;48.112;11.662;2023-04-25T12:47:07;10.90;75.90
31379;DHT22;61664;48.112;11.662;2023-04-25T12:49:34;10.90;76.80
31379;DHT22;61664;48.112;11.662;2023-04-25T12:52:01;10.80;77.30
31379;DHT22;61664;48.112;11.662;2023-04-25T12:54:28;10.80;77.80
31379;DHT22;61664;48.112;11.662;2023-04-25T12:56:55;10.90;77.80
31379;DHT22;61664;48.112;11.662;2023-04-25T12:59:23;10.80;78.60
31379;DHT22;61664;48.112;11.662;2023-04-25T13:01:50;10.90;78.40
31379;DHT22;61664;48.112;11.662;2023-04-25T13:04:16;10.90;78.40
31379;DHT22;61664;48.112;11.662;2023-04-25T13:06:44;10.90;77.70
31379;DHT22;61664;48.112;11.662;2023-04-25T13:09:11;10.90;77.10
31379;DHT22;61664;48.112;11.662;2023-04-25T13:11:39;10.90;76.90
31379;DHT22;61664;48.112;11.662;2023-04-25T13:14:07;10.90;76.90
31379;DHT22;61664;48.112;11.662;2023-04-25T13:16:37;10.80;77.30
31379;DHT22;61664;48.112;11.662;2023-04-25T13:19:04;10.80;77.90
31379;DHT22;61664;48.112;11.662;2023-04-25T13:21:33;10.80;78.30
31379;DHT22;61664;48.112;11.662;2023-04-25T13:24:00;10.90;78.70
31379;DHT22;61664;48.112;11.662;2023-04-25T13:26:27;10.80;79.00
31379;DHT22;61664;48.112;11.662;2023-04-25T13:28:54;10.80;78.80
31379;DHT22;61664;48.112;11.662;2023-04-25T13:31:21;10.80;79.00
31379;DHT22;61664;48.112;11.662;2023-04-25T13:33:48;10.80;78.00
31379;DHT22;61664;48.112;11.662;2023-04-25T13:36:15;10.80;78.10
31379;DHT22;61664;48.112;11.662;2023-04-25T13:38:42;10.80;77.00
31379;DHT22;61664;48.112;11.662;2023-04-25T13:41:10;10.90;77.10
31379;DHT22;61664;48.112;11.662;2023-04-25T13:43:42;10.80;78.00
31379;DHT22;61664;48.112;11.662;2023-04-25T13:46:08;10.70;78.50
31379;DHT22;61664;48.112;11.662;2023-04-25T13:48:56;10.80;79.90
31379;DHT22;61664;48.112;11.662;2023-04-25T13:51:35;10.80;79.20
31379;DHT22;61664;48.112;11.662;2023-04-25T13:54:02;10.80;79.50
31379;DHT22;61664;48.112;11.662;2023-04-25T13:56:29;10.80;80.00
31379;DHT22;61664;48.112;11.662;2023-04-25T13:58:56;10.90;80.10
31379;DHT22;61664;48.112;11.662;2023-04-25T14:01:23;10.90;79.60
31379;DHT22;61664;48.112;11.662;2023-04-25T14:03:50;10.90;79.40
31379;DHT22;61664;48.112;11.662;2023-04-25T14:06:17;10.90;79.50
31379;DHT22;61664;48.112;11.662;2023-04-25T14:08:52;10.80;79.30
31379;DHT22;61664;48.112;11.662;2023-04-25T14:11:19;10.80;79.30
31379;DHT22;61664;48.112;11.662;2023-04-25T14:13:46;10.80;78.90
31379;DHT22;61664;48.112;11.662;2023-04-25T14:16:16;10.80;78.90
31379;DHT22;61664;48.112;11.662;2023-04-25T14:18:43;10.80;79.20
31379;DHT22;61664;48.112;11.662;2023-04-25T14:21:10;10.70;79.80
31379;DHT22;61664;48.112;11.662;2023-04-25T14:23:37;10.70;80.10
31379;DHT22;61664;48.112;11.662;2023-04-25T14:26:04;10.70;81.30
31379;DHT22;61664;48.112;11.662;2023-04-25T14:28:31;10.80;82.40
31379;DHT22;61664;48.112;11.662;2023-04-25T14:30:58;10.90;82.50
31379;DHT22;61664;48.112;11.662;2023-04-25T14:33:25;10.90;80.40
31379;DHT22;61664;48.112;11.662;2023-04-25T14:35:52;10.90;78.80
31379;DHT22;61664;48.112;11.662;2023-04-25T14:38:19;10.90;79.00
31379;DHT22;61664;48.112;11.662;2023-04-25T14:40:49;10.90;78.50
31379;DHT22;61664;48.112;11.662;2023-04-25T14:43:17;10.80;79.50
31379;DHT22;61664;48.112;11.662;2023-04-25T14:45:44;10.80;80.20
31379;DHT22;61664;48.112;11.662;2023-04-25T14:48:11;10.80;80.80
31379;DHT22;61664;48.112;11.662;2023-04-25T14:50:39;10.90;81.70
31379;DHT22;61664;48.112;11.662;2023-04-25T14:53:06;10.90;83.00
31379;DHT22;61664;48.112;11.662;2023-04-25T14:55:33;11.00;82.40
31379;DHT22;61664;48.112;11.662;2023-04-25T14:58:00;11.20;81.90
31379;DHT22;61664;48.112;11.662;2023-04-25T15:00:27;11.30;83.80
31379;DHT22;61664;48.112;11.662;2023-04-25T15:02:55;11.50;84.60
31379;DHT22;61664;48.112;11.662;2023-04-25T15:05:22;11.70;82.90
31379;DHT22;61664;48.112;11.662;2023-04-25T15:07:49;11.80;81.40
31379;DHT22;61664;48.112;11.662;2023-04-25T15:10:17;11.90;80.50
31379;DHT22;61664;48.112;11.662;2023-04-25T15:12:45;12.00;80.80
31379;DHT22;61664;48.112;11.662;2023-04-25T15:15:13;12.00;79.80
31379;DHT22;61664;48.112;11.662;2023-04-25T15:17:51;12.10;81.30
31379;DHT22;61664;48.112;11.662;2023-04-25T15:20:18;12.10;80.70
31379;DHT22;61664;48.112;11.662;2023-04-25T15:22:45;12.20;80.40
31379;DHT22;61664;48.112;11.662;2023-04-25T15:25:12;12.30;78.20
31379;DHT22;61664;48.112;11.662;2023-04-25T15:27:39;12.20;77.10
31379;DHT22;61664;48.112;11.662;2023-04-25T15:30:11;12.20;77.60
31379;DHT22;61664;48.112;11.662;2023-04-25T15:32:42;12.10;77.00
31379;DHT22;61664;48.112;11.662;2023-04-25T15:35:11;12.10;76.80